Date,TemperatureHighF,TemperatureAvgF,TemperatureLowF,DewpointHighF,DewpointAvgF,DewpointLowF,HumidityHigh,HumidityAvg,HumidityLow,PressureMaxIn,PressureMinIn,WindSpeedMaxMPH,WindSpeedAvgMPH,GustSpeedMaxMPH,PrecipitationSumIn
2013-2-1,65.7,53.7,43.3,45.8,38.4,33.5,82,58,37,30.11,29.95,26,7,26,0.00
2013-2-2,69.6,57.7,50.4,56.9,51.7,46.0,99,81,57,29.95,29.84,24,9,24,0.00
2013-2-3,65.1,59.9,55.4,58.7,57.1,54.3,100,91,76,30.00,29.85,40,18,40,0.05
2013-2-4,68.0,59.7,54.1,64.7,57.4,53.9,100,93,70,30.06,29.99,14,4,14,0.00
2013-2-5,64.8,56.7,48.2,60.4,53.3,47.7,100,89,65,30.06,29.91,19,5,19,0.00
2013-2-6,68.2,55.0,45.1,58.9,51.4,44.9,100,89,61,29.91,29.74,17,5,17,0.00
2013-2-7,57.4,55.4,53.1,54.9,50.5,46.5,92,84,71,29.78,29.60,31,10,31,0.09
2013-2-8,59.9,52.5,46.8,50.1,45.4,41.5,93,77,63,29.81,29.59,23,9,23,0.01
2013-2-9,61.9,51.6,42.1,48.0,44.1,41.4,100,77,55,29.94,29.81,18,6,18,0.00
2013-2-10,60.4,52.2,45.7,47.1,42.9,40.2,89,72,52,29.94,29.85,21,7,21,0.00
2013-2-11,56.3,49.2,44.2,43.1,39.3,36.1,92,70,49,30.10,29.82,27,10,27,0.00
2013-2-12,62.1,51.3,40.3,52.0,45.1,36.4,94,80,51,30.12,30.06,16,6,16,0.00
2013-2-13,55.0,50.4,42.6,52.7,49.1,42.4,100,96,81,30.06,29.95,35,6,35,0.51
2013-2-14,53.1,48.7,46.6,52.2,47.8,45.4,100,97,76,29.97,29.74,21,6,24,0.54
2013-2-15,51.4,47.4,42.4,50.2,46.6,42.2,100,97,83,30.08,29.73,20,7,21,0.21
2013-2-16,56.5,48.6,41.9,52.6,47.3,41.6,100,95,81,30.12,30.06,14,4,16,0.15
2013-2-17,48.2,45.9,43.2,47.9,44.4,40.7,100,95,84,30.11,30.01,21,7,28,0.33
2013-2-18,54.7,46.9,39.2,45.0,42.3,37.9,97,85,63,30.13,30.08,14,5,17,0.00
2013-2-19,59.5,49.4,42.6,55.0,48.0,41.7,100,95,75,30.11,29.72,27,5,29,0.15
2013-2-20,61.3,50.3,42.4,47.8,43.3,40.7,100,78,49,30.12,29.87,16,5,17,0.00
2013-2-21,54.7,49.5,44.1,52.4,48.5,43.8,100,96,87,30.10,29.79,14,4,15,0.02
2013-2-22,58.8,51.6,45.9,58.6,38.3,-7.6,99,77,10,29.80,29.63,19,6,21,2.13
2013-2-23,68.9,55.8,47.1,63.5,52.4,46.9,100,90,60,30.10,29.79,15,2,15,0.00
2013-2-24,69.1,57.8,49.1,63.6,50.8,-3.3,100,84,10,30.17,30.09,21,5,23,0.01
2013-2-25,67.8,58.8,52.3,63.7,48.3,-2.6,100,80,10,30.16,30.06,20,6,21,0.00
2013-2-26,69.4,59.8,52.5,62.0,52.9,45.1,99,80,52,30.10,30.04,19,8,21,0.00
2013-2-27,60.3,53.7,47.3,48.5,44.3,41.4,91,71,51,30.12,30.00,30,9,30,0.00
2013-2-28,52.0,48.5,45.3,47.1,43.9,41.0,92,84,74,30.26,30.11,18,7,21,0.00